createdAt,value
2022-09-01T00:02:58.197Z,82.22
2022-09-01T00:05:59.951Z,82.77
2022-09-01T00:09:06.022Z,83.37
2022-09-01T00:12:09.581Z,83.59
2022-09-01T00:15:13.191Z,83.53
2022-09-01T00:18:15.831Z,83.30
2022-09-01T00:21:28.245Z,82.92
2022-09-01T00:24:30.201Z,82.85
2022-09-01T00:27:32.595Z,83.09
2022-09-01T00:30:34.316Z,83.67
2022-09-01T00:33:50.942Z,83.37
2022-09-01T00:36:52.828Z,83.32
2022-09-01T00:39:54.467Z,84.25
2022-09-01T00:42:56.119Z,85.14
2022-09-01T00:45:58.185Z,84.85
2022-09-01T00:49:14.062Z,84.86
2022-09-01T00:52:25.879Z,85.23
2022-09-01T00:55:30.778Z,84.16
2022-09-01T00:58:36.461Z,84.41
2022-09-01T01:01:38.802Z,84.89
2022-09-01T01:04:41.133Z,85.40
2022-09-01T01:07:47.420Z,85.34
2022-09-01T01:10:49.598Z,84.32
2022-09-01T01:13:54.807Z,83.36
2022-09-01T01:16:56.654Z,84.38
2022-09-01T01:20:17.481Z,85.27
2022-09-01T01:23:45.687Z,85.41
2022-09-01T01:26:47.566Z,85.24
2022-09-01T01:29:53.338Z,85.35
2022-09-01T01:32:57.937Z,85.61
2022-09-01T01:36:01.514Z,85.00
2022-09-01T01:39:13.252Z,85.56
2022-09-01T01:42:15.839Z,85.71
2022-09-01T01:45:21.590Z,85.63
2022-09-01T01:48:24.709Z,85.61
2022-09-01T01:51:28.640Z,85.76
2022-09-01T01:54:32.570Z,85.73
2022-09-01T01:57:35.601Z,86.15
2022-09-01T02:00:39.216Z,86.23
2022-09-01T02:03:41.173Z,86.51
2022-09-01T02:06:48.032Z,87.10
2022-09-01T02:09:51.656Z,86.70
2022-09-01T02:12:53.782Z,87.27
2022-09-01T02:15:56.485Z,87.59
2022-09-01T02:18:59.514Z,87.92
2022-09-01T02:22:01.236Z,88.79
2022-09-01T02:25:06.881Z,89.47
2022-09-01T02:28:12.821Z,88.83
2022-09-01T02:31:15.406Z,89.58
2022-09-01T02:34:18.094Z,90.13
2022-09-01T02:37:25.507Z,90.22
2022-09-01T02:40:30.564Z,90.06
2022-09-01T02:43:33.794Z,90.22
2022-09-01T02:46:37.976Z,90.22
2022-09-01T02:49:43.055Z,90.77
2022-09-01T02:52:52.437Z,90.51
2022-09-01T02:55:57.838Z,90.61
2022-09-01T02:59:01.825Z,90.97
2022-09-01T03:02:07.078Z,91.76
2022-09-01T03:05:09.787Z,91.63
2022-09-01T03:08:16.119Z,91.93
2022-09-01T03:11:19.049Z,92.02
2022-09-01T03:14:22.341Z,92.23
2022-09-01T03:17:24.015Z,92.72
2022-09-01T03:20:26.081Z,92.96
2022-09-01T03:23:29.481Z,93.51
2022-09-01T03:26:32.171Z,94.82
2022-09-01T03:29:33.913Z,94.90
2022-09-01T03:32:37.779Z,95.04
2022-09-01T03:35:39.825Z,95.13
2022-09-01T03:38:44.052Z,94.80
2022-09-01T03:41:46.984Z,94.77
2022-09-01T03:44:49.748Z,94.74
2022-09-01T03:47:52.869Z,95.24
2022-09-01T03:50:56.790Z,95.46
2022-09-01T03:53:59.488Z,95.00
2022-09-01T03:57:01.569Z,95.28
2022-09-01T04:00:05.392Z,95.33
2022-09-01T04:03:28.822Z,95.76
2022-09-01T04:06:37.358Z,96.03
2022-09-01T04:09:50.536Z,96.09
2022-09-01T04:12:52.299Z,96.02
2022-09-01T04:15:56.290Z,96.01
2022-09-01T04:19:00.568Z,95.64
2022-09-01T04:22:03.823Z,96.03
2022-09-01T04:25:13.813Z,96.38
2022-09-01T04:28:23.092Z,96.10
2022-09-01T04:31:26.719Z,96.71
2022-09-01T04:34:30.858Z,96.71
2022-09-01T04:37:35.590Z,96.98
2022-09-01T04:40:41.043Z,97.19
2022-09-01T04:43:43.018Z,97.08
2022-09-01T04:46:50.589Z,96.94
2022-09-01T04:49:59.715Z,97.14
2022-09-01T04:53:06.026Z,97.55
2022-09-01T04:56:12.625Z,97.33
2022-09-01T04:59:21.577Z,97.27
2022-09-01T05:02:29.127Z,97.25
2022-09-01T05:05:39.501Z,96.75
2022-09-01T05:08:42.020Z,96.95
2022-09-01T05:11:53.137Z,96.89
2022-09-01T05:14:57.721Z,97.07
2022-09-01T05:18:02.454Z,96.76
2022-09-01T05:21:10.966Z,97.62
2022-09-01T05:24:21.718Z,98.14
2022-09-01T05:27:23.418Z,97.83
2022-09-01T05:30:28.632Z,98.10
2022-09-01T05:33:30.306Z,98.45
2022-09-01T05:36:33.684Z,98.38
2022-09-01T05:39:38.679Z,98.13
2022-09-01T05:42:40.612Z,98.04
2022-09-01T05:46:05.159Z,98.26
2022-09-01T05:49:08.185Z,98.39
2022-09-01T05:52:12.010Z,98.38
2022-09-01T05:55:15.284Z,98.14
2022-09-01T05:58:20.106Z,98.08
2022-09-01T06:01:26.409Z,98.35
2022-09-01T06:04:29.999Z,98.40
2022-09-01T06:07:40.923Z,98.32
2022-09-01T06:10:42.984Z,98.57
2022-09-01T06:13:47.341Z,98.35
2022-09-01T06:16:49.149Z,98.70
2022-09-01T06:19:56.347Z,98.72
2022-09-01T06:22:58.400Z,98.99
2022-09-01T06:26:00.165Z,99.00
2022-09-01T06:29:09.747Z,98.88
2022-09-01T06:32:19.417Z,98.46
2022-09-01T06:35:25.239Z,98.47
2022-09-01T06:38:27.674Z,99.20
2022-09-01T06:41:29.881Z,99.61
2022-09-01T06:44:32.189Z,100.00
2022-09-01T06:47:39.309Z,100.00
2022-09-01T06:54:06.195Z,100.00
2022-09-01T07:00:31.877Z,100.00
2022-09-01T07:03:34.151Z,99.14
2022-09-01T07:07:00.236Z,97.60
2022-09-01T07:14:16.219Z,94.31
2022-09-01T07:17:25.331Z,93.17
2022-09-01T07:20:29.416Z,92.07
2022-09-01T07:23:47.249Z,91.41
2022-09-01T07:26:53.862Z,89.57
2022-09-01T07:29:57.504Z,86.12
2022-09-01T07:33:41.700Z,86.81
2022-09-01T07:36:29.035Z,85.66
2022-09-01T07:39:48.558Z,84.09
2022-09-01T07:43:27.262Z,82.02
2022-09-01T07:47:52.516Z,80.46
2022-09-01T07:53:52.085Z,76.67
2022-09-01T07:56:55.564Z,77.61
2022-09-01T07:59:58.254Z,77.16
2022-09-01T08:03:15.041Z,77.26
2022-09-01T08:06:20.696Z,76.81
2022-09-01T08:09:37.219Z,75.65
2022-09-01T08:12:40.756Z,74.06
2022-09-01T08:19:16.080Z,72.92
2022-09-01T08:22:38.233Z,71.87
2022-09-01T08:25:50.703Z,71.39
2022-09-01T08:28:55.587Z,70.53
2022-09-01T08:32:07.641Z,69.22
2022-09-01T08:35:11.674Z,68.42
2022-09-01T08:38:14.122Z,67.93
2022-09-01T08:41:46.728Z,68.18
2022-09-01T08:45:02.786Z,66.21
2022-09-01T08:49:09.703Z,65.31
2022-09-01T08:52:08.323Z,65.43
2022-09-01T08:55:26.120Z,65.99
2022-09-01T08:58:33.009Z,62.01
2022-09-01T09:02:05.308Z,62.28
2022-09-01T09:05:33.505Z,61.07
2022-09-01T09:08:51.378Z,60.77
2022-09-01T09:12:33.504Z,64.43
2022-09-01T09:15:44.965Z,67.54
2022-09-01T09:18:58.778Z,65.40
2022-09-01T09:22:04.265Z,64.02
2022-09-01T09:25:19.147Z,60.64
2022-09-01T09:28:21.130Z,62.42
2022-09-01T09:31:45.838Z,61.92
2022-09-01T09:34:48.789Z,62.67
2022-09-01T09:37:50.984Z,63.04
2022-09-01T09:44:32.987Z,65.23
2022-09-01T09:47:44.805Z,64.61
2022-09-01T09:50:46.993Z,62.86
2022-09-01T09:53:50.066Z,61.33
2022-09-01T09:57:04.857Z,62.38
2022-09-01T10:00:20.100Z,56.17
2022-09-01T10:03:38.478Z,56.80
2022-09-01T10:06:46.989Z,54.40
2022-09-01T10:09:49.685Z,54.94
2022-09-01T10:12:55.703Z,52.84
2022-09-01T10:16:00.794Z,50.24
2022-09-01T10:19:12.541Z,51.96
2022-09-01T10:22:21.660Z,51.78
2022-09-01T10:25:32.296Z,52.98
2022-09-01T10:28:39.342Z,55.13
2022-09-01T10:31:41.654Z,52.97
2022-09-01T10:34:45.853Z,52.33
2022-09-01T10:37:48.641Z,52.44
2022-09-01T10:41:07.338Z,52.11
2022-09-01T10:44:19.332Z,51.45
2022-09-01T10:47:30.197Z,52.43
2022-09-01T10:50:35.354Z,53.54
2022-09-01T10:53:39.908Z,52.17
2022-09-01T10:56:52.688Z,52.21
2022-09-01T10:59:58.263Z,52.11
2022-09-01T11:10:31.952Z,51.42
2022-09-01T11:14:01.220Z,50.42
2022-09-01T11:17:23.497Z,51.71
2022-09-01T11:20:40.288Z,49.83
2022-09-01T11:23:42.158Z,50.85
2022-09-01T11:26:47.507Z,50.02
2022-09-01T11:29:55.869Z,47.56
2022-09-01T11:33:07.264Z,48.94
2022-09-01T11:36:30.164Z,47.94
2022-09-01T11:39:41.569Z,48.29
2022-09-01T11:42:45.841Z,47.70
2022-09-01T11:46:07.081Z,47.15
2022-09-01T11:49:37.244Z,46.31
2022-09-01T11:52:39.614Z,47.26
2022-09-01T11:55:44.446Z,45.83
2022-09-01T11:58:46.594Z,46.23
2022-09-01T12:01:48.298Z,46.57
2022-09-01T12:04:51.244Z,47.33
2022-09-01T12:07:53.365Z,47.75
2022-09-01T12:11:05.793Z,46.17
2022-09-01T12:14:11.583Z,44.72
2022-09-01T12:17:20.431Z,42.97
2022-09-01T12:20:38.651Z,41.46
2022-09-01T12:23:43.179Z,41.22
2022-09-01T12:26:46.964Z,41.81
2022-09-01T12:29:50.770Z,44.28
2022-09-01T12:33:22.741Z,43.87
2022-09-01T12:36:22.247Z,44.02
2022-09-01T12:39:25.012Z,42.30
2022-09-01T12:42:41.518Z,41.46
2022-09-01T12:45:47.893Z,41.00
2022-09-01T12:48:49.868Z,41.39
2022-09-01T12:52:20.004Z,40.28
2022-09-01T12:55:47.967Z,40.52
2022-09-01T12:58:54.722Z,39.17
2022-09-01T13:01:56.691Z,39.40
2022-09-01T13:05:41.892Z,40.09
2022-09-01T13:08:44.488Z,39.11
2022-09-01T13:12:06.769Z,40.21
2022-09-01T13:15:10.298Z,40.48
2022-09-01T13:18:12.250Z,40.11
2022-09-01T13:21:15.381Z,41.16
2022-09-01T13:24:17.911Z,40.61
2022-09-01T13:27:21.322Z,40.18
2022-09-01T13:30:28.540Z,38.66
2022-09-01T13:33:31.424Z,38.03
2022-09-01T13:36:52.944Z,39.28
2022-09-01T13:39:54.805Z,41.59
2022-09-01T13:42:56.672Z,41.78
2022-09-01T13:45:59.044Z,42.75
2022-09-01T13:49:04.828Z,42.70
2022-09-01T13:52:25.318Z,43.36
2022-09-01T13:55:29.893Z,42.62
2022-09-01T13:58:31.760Z,44.09
2022-09-01T14:01:33.586Z,41.47
2022-09-01T14:04:35.335Z,42.47
2022-09-01T14:07:37.968Z,42.41
2022-09-01T14:10:42.835Z,42.29
2022-09-01T14:13:45.939Z,43.67
2022-09-01T14:16:47.827Z,43.42
2022-09-01T14:19:52.997Z,42.74
2022-09-01T14:22:56.107Z,41.23
2022-09-01T14:25:58.887Z,40.41
2022-09-01T14:29:02.736Z,39.74
2022-09-01T14:32:04.483Z,37.72
2022-09-01T14:35:08.277Z,35.83
2022-09-01T14:38:11.878Z,37.43
2022-09-01T14:41:15.295Z,38.38
2022-09-01T14:44:16.959Z,37.28
2022-09-01T14:47:19.881Z,36.32
2022-09-01T14:50:23.666Z,37.93
2022-09-01T14:53:25.458Z,36.32
2022-09-01T14:56:27.245Z,37.47
2022-09-01T14:59:28.925Z,38.66
2022-09-01T15:02:33.043Z,39.89
2022-09-01T15:05:39.761Z,40.68
2022-09-01T15:08:43.066Z,41.45
2022-09-01T15:11:45.636Z,40.49
2022-09-01T15:14:47.330Z,40.61
2022-09-01T15:17:49.143Z,41.31
2022-09-01T15:20:51.163Z,41.76
2022-09-01T15:23:54.219Z,42.16
2022-09-01T15:26:56.119Z,41.04
2022-09-01T15:29:58.044Z,42.20
2022-09-01T15:32:59.742Z,41.95
2022-09-01T15:36:01.510Z,43.10
2022-09-01T15:39:03.772Z,42.49
2022-09-01T15:42:05.727Z,40.70
2022-09-01T15:45:12.140Z,40.18
2022-09-01T15:48:14.003Z,41.20
2022-09-01T15:51:32.596Z,41.77
2022-09-01T15:54:37.685Z,41.66
2022-09-01T15:57:39.350Z,41.02
2022-09-01T16:00:42.742Z,40.23
2022-09-01T16:03:44.581Z,41.66
2022-09-01T16:06:46.345Z,40.63
2022-09-01T16:09:47.991Z,39.80
2022-09-01T16:12:49.913Z,40.88
2022-09-01T16:16:03.798Z,40.65
2022-09-01T16:19:18.169Z,41.49
2022-09-01T16:22:28.716Z,41.81
2022-09-01T16:25:32.623Z,41.79
2022-09-01T16:28:37.964Z,40.82
2022-09-01T16:31:42.787Z,41.17
2022-09-01T16:34:49.726Z,41.34
2022-09-01T16:38:23.890Z,40.88
2022-09-01T16:41:53.224Z,40.54
2022-09-01T16:44:54.877Z,42.26
2022-09-01T16:48:26.025Z,42.86
2022-09-01T16:51:44.833Z,43.83
2022-09-01T16:54:56.643Z,44.55
2022-09-01T16:58:07.255Z,42.84
2022-09-01T17:01:47.361Z,44.14
2022-09-01T17:04:58.283Z,45.01
2022-09-01T17:08:21.383Z,44.33
2022-09-01T17:11:39.314Z,43.88
2022-09-01T17:14:49.478Z,43.61
2022-09-01T17:18:09.327Z,43.80
2022-09-01T17:21:41.746Z,43.90
2022-09-01T17:24:46.585Z,44.38
2022-09-01T17:27:55.848Z,45.01
2022-09-01T17:31:10.536Z,45.17
2022-09-01T17:34:40.759Z,45.87
2022-09-01T17:38:00.615Z,45.79
2022-09-01T17:41:23.210Z,46.63
2022-09-01T17:45:00.546Z,47.63
2022-09-01T17:48:18.274Z,48.12
2022-09-01T17:51:39.118Z,47.67
2022-09-01T17:54:56.845Z,49.64
2022-09-01T17:58:06.365Z,50.67
2022-09-01T18:01:23.121Z,50.37
2022-09-01T18:05:00.375Z,49.69
2022-09-01T18:08:17.653Z,50.04
2022-09-01T18:11:52.776Z,50.20
2022-09-01T18:15:04.815Z,54.28
2022-09-01T18:18:23.788Z,53.84
2022-09-01T18:21:32.279Z,55.24
2022-09-01T18:24:54.361Z,56.37
2022-09-01T18:27:56.072Z,58.27
2022-09-01T18:31:07.379Z,59.05
2022-09-01T18:34:16.470Z,58.07
2022-09-01T18:37:21.016Z,57.62
2022-09-01T18:40:34.358Z,58.65
2022-09-01T18:43:59.095Z,57.14
2022-09-01T18:47:06.420Z,58.42
2022-09-01T18:50:23.606Z,56.19
2022-09-01T18:53:25.299Z,56.92
2022-09-01T18:56:58.904Z,56.70
2022-09-01T19:00:17.033Z,56.36
2022-09-01T19:03:28.508Z,55.87
2022-09-01T19:06:40.580Z,56.95
2022-09-01T19:10:18.428Z,56.20
2022-09-01T19:13:48.415Z,56.08
2022-09-01T19:16:56.018Z,56.26
2022-09-01T19:20:03.555Z,56.66
2022-09-01T19:23:12.324Z,56.54
2022-09-01T19:26:21.282Z,58.75
2022-09-01T19:29:37.995Z,59.02
2022-09-01T19:32:39.771Z,61.76
2022-09-01T19:35:44.009Z,62.82
2022-09-01T19:38:46.197Z,63.19
2022-09-01T19:41:54.940Z,60.53
2022-09-01T19:45:06.551Z,62.71
2022-09-01T19:48:24.151Z,63.63
2022-09-01T19:51:42.044Z,62.73
2022-09-01T19:55:09.901Z,63.10
2022-09-01T19:58:21.254Z,63.68
2022-09-01T20:01:38.234Z,60.40
2022-09-01T20:04:57.226Z,60.76
2022-09-01T20:08:08.169Z,61.57
2022-09-01T20:11:35.141Z,60.74
2022-09-01T20:15:03.814Z,60.81
2022-09-01T20:18:18.425Z,60.75
2022-09-01T20:21:21.479Z,59.23
2022-09-01T20:24:39.765Z,60.86
2022-09-01T20:27:52.339Z,60.35
2022-09-01T20:31:03.452Z,60.41
2022-09-01T20:34:32.040Z,60.49
2022-09-01T20:37:38.463Z,60.90
2022-09-01T20:40:42.875Z,62.00
2022-09-01T20:43:48.169Z,62.18
2022-09-01T20:46:51.384Z,63.20
2022-09-01T20:49:53.038Z,63.89
2022-09-01T20:52:54.788Z,64.06
2022-09-01T20:56:05.819Z,65.65
2022-09-01T20:59:18.682Z,65.89
2022-09-01T21:03:00.431Z,66.08
2022-09-01T21:06:15.853Z,67.07
2022-09-01T21:09:20.770Z,67.65
2022-09-01T21:12:47.451Z,69.30
2022-09-01T21:16:16.684Z,69.68
2022-09-01T21:19:36.510Z,70.68
2022-09-01T21:22:38.234Z,69.47
2022-09-01T21:25:39.981Z,67.85
2022-09-01T21:28:45.068Z,68.65
2022-09-01T21:31:50.031Z,68.68
2022-09-01T21:34:53.053Z,66.87
2022-09-01T21:37:54.788Z,69.47
2022-09-01T21:40:59.325Z,67.70
2022-09-01T21:44:01.055Z,69.59
2022-09-01T21:47:04.081Z,67.04
2022-09-01T21:50:06.346Z,66.71
2022-09-01T21:53:08.923Z,66.90
2022-09-01T21:56:10.800Z,67.07
2022-09-01T21:59:17.014Z,67.14
2022-09-01T22:02:20.167Z,65.30
2022-09-01T22:05:21.806Z,61.45
2022-09-01T22:08:23.566Z,61.19
2022-09-01T22:11:26.360Z,61.15
2022-09-01T22:14:29.199Z,62.61
2022-09-01T22:17:31.641Z,61.94
2022-09-01T22:20:33.357Z,62.43
2022-09-01T22:23:35.592Z,61.99
2022-09-01T22:26:37.304Z,61.26
2022-09-01T22:29:39.013Z,62.04
2022-09-01T22:32:45.347Z,62.30
2022-09-01T22:35:50.685Z,62.78
2022-09-01T22:38:53.334Z,62.78
2022-09-01T22:41:55.526Z,64.43
2022-09-01T22:44:57.330Z,61.64
2022-09-01T22:47:59.037Z,62.80
2022-09-01T22:51:07.191Z,63.54
2022-09-01T22:54:10.269Z,63.08
2022-09-01T22:57:12.745Z,62.68
2022-09-01T23:00:14.766Z,62.77
2022-09-01T23:03:27.315Z,63.15
2022-09-01T23:06:31.598Z,62.63
2022-09-01T23:09:34.811Z,62.17
2022-09-01T23:12:36.581Z,61.84
2022-09-01T23:15:38.419Z,62.31
2022-09-01T23:18:43.064Z,62.00
2022-09-01T23:21:45.390Z,63.43
2022-09-01T23:24:47.057Z,62.76
2022-09-01T23:27:48.667Z,62.54
2022-09-01T23:30:51.005Z,64.28
2022-09-01T23:33:53.408Z,67.07
2022-09-01T23:36:55.236Z,64.45
2022-09-01T23:39:58.135Z,66.94
2022-09-01T23:42:59.907Z,66.81
2022-09-01T23:46:02.094Z,66.05
2022-09-01T23:49:04.447Z,66.31
2022-09-01T23:52:07.047Z,67.13
2022-09-01T23:55:09.454Z,68.63
2022-09-01T23:58:12.645Z,68.11
